Time;durP1;ratioP1;P1;durP2;ratioP2;P2;SDS_P1;SDS_P2;PMS_P1;PMS_P2;Temp;Humidity;BMP_temperature;BMP_pressure;BME280_temperature;BME280_humidity;BME280_pressure;Samples;Min_cycle;Max_cycle;Signal;HPM_P1;HPM_P2
2023/04/18 00:00:19;;;;;;;14.88;9.32;;;7.70;99.90;;;;;;5112566;28;20466;-71
2023/04/18 00:02:45;;;;;;;13.43;9.25;;;7.80;99.90;;;;;;5112999;28;20043;-70
2023/04/18 00:05:16;;;;;;;12.80;8.75;;;7.80;99.90;;;;;;5075586;28;20123;-71
2023/04/18 00:07:43;;;;;;;12.55;8.48;;;7.80;99.90;;;;;;5076201;28;20540;-71
2023/04/18 00:10:09;;;;;;;13.68;9.32;;;7.70;99.90;;;;;;5089003;28;20131;-70
2023/04/18 00:12:35;;;;;;;16.95;9.55;;;7.70;99.90;;;;;;5087394;28;20130;-70
2023/04/18 00:15:03;;;;;;;15.55;9.15;;;7.60;99.90;;;;;;5113063;28;20036;-71
2023/04/18 00:17:30;;;;;;;14.07;8.50;;;7.60;99.90;;;;;;5112837;28;20046;-71
2023/04/18 00:19:57;;;;;;;15.27;8.88;;;7.70;99.90;;;;;;5110874;28;20040;-70
2023/04/18 00:22:23;;;;;;;13.85;9.02;;;7.70;99.90;;;;;;5089187;28;20078;-70
2023/04/18 00:24:50;;;;;;;13.55;7.97;;;7.60;99.90;;;;;;5092932;28;20400;-70
2023/04/18 00:27:19;;;;;;;14.15;8.20;;;7.70;99.90;;;;;;5092399;28;20051;-70
2023/04/18 00:29:46;;;;;;;12.27;8.80;;;7.70;99.90;;;;;;5091261;28;20040;-71
2023/04/18 00:32:12;;;;;;;12.18;7.68;;;7.70;99.90;;;;;;5092404;28;20063;-70
2023/04/18 00:34:37;;;;;;;12.32;8.40;;;7.60;99.90;;;;;;5092374;28;20495;-70
2023/04/18 00:37:03;;;;;;;12.75;8.50;;;7.60;99.90;;;;;;5109308;28;20511;-71
2023/04/18 00:39:29;;;;;;;15.55;8.93;;;7.60;99.90;;;;;;5075093;28;20051;-71
2023/04/18 00:41:54;;;;;;;12.32;8.30;;;7.60;99.90;;;;;;5092887;28;20043;-70
2023/04/18 00:44:20;;;;;;;15.50;8.77;;;7.60;99.90;;;;;;5110338;28;20032;-71
2023/04/18 00:46:45;;;;;;;11.93;7.63;;;7.50;99.90;;;;;;5112707;28;20116;-70
2023/04/18 00:49:11;;;;;;;12.48;7.65;;;7.60;99.90;;;;;;5112048;28;20093;-70
2023/04/18 00:51:37;;;;;;;11.57;8.38;;;7.50;99.90;;;;;;5095771;28;20463;-70
2023/04/18 00:54:05;;;;;;;12.82;7.97;;;7.50;99.90;;;;;;5075838;28;20040;-70
2023/04/18 00:56:31;;;;;;;12.82;8.18;;;7.50;99.90;;;;;;5091910;28;20403;-71
2023/04/18 00:58:58;;;;;;;12.05;8.48;;;7.50;99.90;;;;;;5112851;28;20032;-70
2023/04/18 01:01:23;;;;;;;14.32;8.23;;;7.40;99.90;;;;;;5112755;28;20387;-70
2023/04/18 01:03:49;;;;;;;13.18;8.13;;;7.40;99.90;;;;;;5094364;28;20118;-70
2023/04/18 01:06:15;;;;;;;13.88;7.93;;;7.40;99.90;;;;;;5111259;28;20051;-71
2023/04/18 01:08:41;;;;;;;12.90;8.95;;;7.30;99.90;;;;;;5094309;28;20050;-71
2023/04/18 01:11:07;;;;;;;13.45;9.07;;;7.30;99.90;;;;;;5112712;28;20036;-70
2023/04/18 01:13:33;;;;;;;12.98;8.95;;;7.30;99.90;;;;;;5097198;28;20069;-70
2023/04/18 01:15:58;;;;;;;13.88;8.85;;;7.40;99.90;;;;;;5092342;28;20043;-71
2023/04/18 01:18:24;;;;;;;13.82;8.68;;;7.30;99.90;;;;;;5095951;28;20388;-71
2023/04/18 01:20:51;;;;;;;12.55;7.97;;;7.30;99.90;;;;;;5110585;28;20051;-71
2023/04/18 01:23:18;;;;;;;12.68;9.05;;;7.30;99.90;;;;;;5083076;28;20044;-71
2023/04/18 01:25:44;;;;;;;12.95;8.18;;;7.20;99.90;;;;;;5099356;28;20436;-70
2023/04/18 01:28:12;;;;;;;12.45;7.80;;;7.30;99.90;;;;;;5114960;28;20092;-71
2023/04/18 01:30:37;;;;;;;11.60;6.75;;;7.30;99.90;;;;;;5079008;28;20036;-71
2023/04/18 01:33:04;;;;;;;14.75;7.65;;;7.30;99.90;;;;;;5088183;28;20046;-71
2023/04/18 01:35:30;;;;;;;12.05;6.82;;;7.30;99.90;;;;;;5080708;28;20036;-71
2023/04/18 01:37:56;;;;;;;12.13;8.63;;;7.30;99.90;;;;;;5116376;28;20036;-71
2023/04/18 01:40:23;;;;;;;14.80;8.43;;;7.20;99.90;;;;;;5098902;28;20130;-71
2023/04/18 01:42:48;;;;;;;11.57;8.15;;;7.20;99.90;;;;;;5103689;28;20057;-71
2023/04/18 01:45:15;;;;;;;12.95;8.38;;;7.30;99.90;;;;;;5095910;28;20086;-71
2023/04/18 01:47:41;;;;;;;12.77;7.88;;;7.30;99.90;;;;;;5095521;28;20036;-70
2023/04/18 01:50:07;;;;;;;12.55;7.25;;;7.30;99.90;;;;;;5107466;28;20036;-70
2023/04/18 01:52:33;;;;;;;11.45;7.97;;;7.40;99.90;;;;;;5089399;28;20036;-70
2023/04/18 01:55:00;;;;;;;14.05;8.88;;;7.40;99.90;;;;;;5111764;27;20039;-71
2023/04/18 01:57:27;;;;;;;13.80;8.15;;;7.30;99.90;;;;;;5094876;28;20054;-70
2023/04/18 01:59:53;;;;;;;14.77;8.93;;;7.30;99.90;;;;;;5079009;28;20036;-71
2023/04/18 02:02:18;;;;;;;13.63;8.52;;;7.30;99.90;;;;;;5094600;28;20040;-71
2023/04/18 02:04:44;;;;;;;12.45;8.00;;;7.30;99.90;;;;;;5095148;28;20046;-71
2023/04/18 02:07:09;;;;;;;13.48;8.50;;;7.40;99.90;;;;;;5095031;28;20071;-70
2023/04/18 02:09:35;;;;;;;13.73;8.52;;;7.40;99.90;;;;;;5094571;28;20074;-71
2023/04/18 02:12:01;;;;;;;13.90;9.20;;;7.30;99.90;;;;;;5094449;28;20391;-70
2023/04/18 02:14:31;;;;;;;16.65;8.93;;;7.30;99.90;;;;;;5095128;28;20047;-70
2023/04/18 02:16:58;;;;;;;12.38;8.30;;;7.30;99.90;;;;;;5094909;28;20039;-70
2023/04/18 02:19:24;;;;;;;13.20;7.70;;;7.30;99.90;;;;;;5077815;28;20040;-71
2023/04/18 02:21:52;;;;;;;14.00;9.50;;;7.40;99.90;;;;;;5094378;28;20036;-71
2023/04/18 02:24:18;;;;;;;13.95;8.02;;;7.40;99.90;;;;;;5103402;28;20036;-71
2023/04/18 02:26:44;;;;;;;15.20;10.30;;;7.30;99.90;;;;;;5100477;28;20066;-71
2023/04/18 02:29:09;;;;;;;14.07;8.80;;;7.40;99.90;;;;;;5102096;28;20111;-71
2023/04/18 02:31:39;;;;;;;13.98;8.80;;;7.40;99.90;;;;;;5105070;28;20031;-71
2023/04/18 02:34:06;;;;;;;14.35;8.32;;;7.40;99.90;;;;;;5115902;27;20126;-70
2023/04/18 02:36:32;;;;;;;13.70;8.30;;;7.30;99.90;;;;;;5112329;27;20526;-71
2023/04/18 02:38:57;;;;;;;13.85;8.90;;;7.30;99.90;;;;;;5114879;28;20071;-71
2023/04/18 02:41:23;;;;;;;14.63;8.27;;;7.40;99.90;;;;;;5097040;28;20035;-71
2023/04/18 02:43:49;;;;;;;12.75;8.23;;;7.30;99.90;;;;;;5124713;27;20036;-71
2023/04/18 02:46:14;;;;;;;13.00;8.18;;;7.40;99.90;;;;;;5093859;28;20054;-71
2023/04/18 02:48:40;;;;;;;13.73;8.48;;;7.40;99.90;;;;;;5094288;28;20090;-71
2023/04/18 02:51:07;;;;;;;12.77;7.97;;;7.40;99.90;;;;;;5099013;28;20122;-71
2023/04/18 02:53:33;;;;;;;13.23;8.45;;;7.50;99.90;;;;;;5095877;28;20092;-71
2023/04/18 02:55:59;;;;;;;13.88;8.60;;;7.40;99.90;;;;;;5114012;28;20044;-71
2023/04/18 02:58:25;;;;;;;13.80;8.68;;;7.40;99.90;;;;;;5096349;28;20043;-71
2023/04/18 03:00:55;;;;;;;13.50;8.73;;;7.40;99.90;;;;;;5096419;28;20042;-71
2023/04/18 03:03:20;;;;;;;12.73;8.80;;;7.50;99.90;;;;;;5129457;27;20042;-71
2023/04/18 03:05:46;;;;;;;12.00;6.53;;;7.30;99.90;;;;;;5089070;28;20027;-71
2023/04/18 03:08:12;;;;;;;11.32;7.15;;;7.40;99.90;;;;;;5108701;28;20085;-72
2023/04/18 03:10:38;;;;;;;13.23;8.35;;;7.50;99.90;;;;;;5081995;28;20039;-71
2023/04/18 03:13:04;;;;;;;13.85;8.20;;;7.50;99.90;;;;;;5093711;28;20036;-71
2023/04/18 03:15:32;;;;;;;13.77;6.57;;;7.40;99.90;;;;;;5095042;28;20039;-71
2023/04/18 03:17:58;;;;;;;12.30;8.30;;;7.40;99.90;;;;;;5094720;28;20036;-72
2023/04/18 03:20:24;;;;;;;11.95;8.48;;;7.40;99.90;;;;;;5108358;28;20131;-71
2023/04/18 03:22:49;;;;;;;15.38;8.30;;;7.40;99.90;;;;;;5094069;28;20042;-71
2023/04/18 03:25:15;;;;;;;12.95;8.13;;;7.40;99.90;;;;;;5096868;28;20555;-71
2023/04/18 03:27:42;;;;;;;13.48;9.20;;;7.20;99.90;;;;;;5102610;28;20510;-71
2023/04/18 03:30:08;;;;;;;12.77;7.95;;;7.40;99.90;;;;;;5102164;27;20113;-71
2023/04/18 03:32:35;;;;;;;15.45;10.88;;;7.50;99.90;;;;;;5086357;28;20042;-71
2023/04/18 03:35:00;;;;;;;14.57;10.13;;;7.30;99.90;;;;;;5107568;28;20148;-71
2023/04/18 03:37:26;;;;;;;13.13;6.53;;;7.40;99.90;;;;;;5117248;27;20141;-71
2023/04/18 03:39:52;;;;;;;12.73;7.70;;;7.40;99.90;;;;;;5081020;28;20043;-71
2023/04/18 03:42:17;;;;;;;13.70;8.15;;;7.60;99.90;;;;;;5092598;28;20505;-71
2023/04/18 03:44:43;;;;;;;12.07;7.20;;;7.50;99.90;;;;;;5112787;28;20038;-71
2023/04/18 03:47:08;;;;;;;12.10;7.40;;;7.50;99.90;;;;;;5096340;28;20063;-71
2023/04/18 03:49:34;;;;;;;13.15;7.80;;;7.40;99.90;;;;;;5095603;28;20046;-70
2023/04/18 03:51:59;;;;;;;11.80;7.93;;;7.50;99.90;;;;;;5093961;28;20036;-71
2023/04/18 03:54:25;;;;;;;13.13;7.82;;;7.60;99.90;;;;;;5093179;28;20036;-71
2023/04/18 03:56:51;;;;;;;15.43;7.50;;;7.50;99.90;;;;;;5090793;28;20130;-70
2023/04/18 03:59:16;;;;;;;11.45;7.38;;;7.60;99.90;;;;;;5106846;28;20067;-71
2023/04/18 04:01:42;;;;;;;14.68;8.38;;;7.60;99.90;;;;;;5107446;28;20028;-71
2023/04/18 04:04:12;;;;;;;13.00;8.27;;;7.50;99.90;;;;;;5109893;28;20055;-70
2023/04/18 04:06:38;;;;;;;13.45;7.75;;;7.50;99.90;;;;;;5090027;28;20458;-71
2023/04/18 04:09:03;;;;;;;12.65;7.45;;;7.50;99.90;;;;;;5093983;28;20115;-71
2023/04/18 04:11:29;;;;;;;12.90;7.82;;;7.50;99.90;;;;;;5096612;28;20430;-71
2023/04/18 04:13:54;;;;;;;13.82;7.97;;;7.40;99.90;;;;;;5092648;27;20360;-71
2023/04/18 04:16:20;;;;;;;12.88;7.78;;;7.40;99.90;;;;;;5091854;28;20055;-71
2023/04/18 04:18:46;;;;;;;12.27;7.45;;;7.40;99.90;;;;;;5092683;27;20070;-71
2023/04/18 04:21:11;;;;;;;12.38;7.88;;;7.40;99.90;;;;;;5125444;27;20084;-71
2023/04/18 04:23:37;;;;;;;13.98;7.90;;;7.40;99.90;;;;;;5076440;28;20503;-71
2023/04/18 04:26:03;;;;;;;12.77;7.40;;;7.40;99.90;;;;;;5094158;28;20055;-71
2023/04/18 04:28:30;;;;;;;11.68;7.68;;;7.40;99.90;;;;;;5103825;28;20036;-70
2023/04/18 04:30:56;;;;;;;12.32;7.30;;;7.40;99.90;;;;;;5079123;28;20027;-70
2023/04/18 04:33:24;;;;;;;15.02;8.50;;;7.40;99.90;;;;;;5092975;28;20070;-71
2023/04/18 04:35:51;;;;;;;12.05;6.85;;;7.40;99.90;;;;;;5092715;28;20122;-71
2023/04/18 04:38:18;;;;;;;15.13;8.30;;;7.40;99.90;;;;;;5096262;28;20040;-71
2023/04/18 04:40:45;;;;;;;14.68;8.18;;;7.40;99.90;;;;;;5103270;28;20088;-70
2023/04/18 04:43:14;;;;;;;11.93;7.50;;;7.40;99.90;;;;;;5101311;28;20036;-70
2023/04/18 04:45:40;;;;;;;12.27;6.70;;;7.40;99.90;;;;;;5102170;28;20039;-71
2023/04/18 04:48:06;;;;;;;12.15;7.35;;;7.50;99.90;;;;;;5108758;28;20039;-70
2023/04/18 04:50:37;;;;;;;13.27;7.95;;;7.50;99.90;;;;;;5082796;28;20035;-70
2023/04/18 04:53:03;;;;;;;17.13;9.85;;;7.50;99.90;;;;;;5074958;28;20032;-70
2023/04/18 04:55:29;;;;;;;14.63;7.78;;;7.40;99.90;;;;;;5098891;28;20071;-70
2023/04/18 04:57:54;;;;;;;13.52;7.53;;;7.40;99.90;;;;;;5107426;28;20070;-70
2023/04/18 05:00:21;;;;;;;11.20;7.05;;;7.30;99.90;;;;;;5101894;28;20431;-70
2023/04/18 05:02:52;;;;;;;13.18;7.97;;;7.40;99.90;;;;;;5093500;28;20554;-71
2023/04/18 05:05:18;;;;;;;9.18;4.72;;;7.30;99.90;;;;;;5093077;28;20483;-70
2023/04/18 05:07:43;;;;;;;12.38;7.50;;;7.30;99.90;;;;;;5104289;28;20039;-70
2023/04/18 05:10:09;;;;;;;13.25;7.22;;;7.40;99.90;;;;;;5092632;28;20084;-70
2023/04/18 05:12:35;;;;;;;11.90;7.20;;;7.40;99.90;;;;;;5077102;28;20047;-70
2023/04/18 05:15:01;;;;;;;11.30;6.68;;;7.30;99.90;;;;;;5074671;28;20032;-70
2023/04/18 05:17:27;;;;;;;11.80;7.20;;;7.40;99.90;;;;;;5095348;28;20028;-70
2023/04/18 05:19:52;;;;;;;12.65;6.28;;;7.40;99.90;;;;;;5101566;28;20101;-70
2023/04/18 05:22:18;;;;;;;12.43;7.07;;;7.40;99.90;;;;;;5111454;28;20118;-70
2023/04/18 05:24:44;;;;;;;12.25;7.70;;;7.40;99.90;;;;;;5108540;28;20498;-71
2023/04/18 05:27:09;;;;;;;12.15;7.55;;;7.40;99.90;;;;;;5089162;28;20031;-70
2023/04/18 05:29:35;;;;;;;11.65;7.90;;;7.40;99.90;;;;;;5096244;28;20040;-70
2023/04/18 05:32:01;;;;;;;13.60;8.65;;;7.50;99.90;;;;;;5090664;28;20032;-70
2023/04/18 05:34:26;;;;;;;12.77;8.07;;;7.50;99.90;;;;;;5095743;28;20081;-70
2023/04/18 05:36:52;;;;;;;14.25;8.23;;;7.50;99.90;;;;;;5093186;28;20028;-70
2023/04/18 05:39:18;;;;;;;14.55;8.18;;;7.50;99.90;;;;;;5093775;28;20386;-70
2023/04/18 05:41:43;;;;;;;13.60;7.93;;;7.50;99.90;;;;;;5102869;28;20035;-70
2023/04/18 05:44:09;;;;;;;13.75;8.52;;;7.60;99.90;;;;;;5107753;28;20046;-70
2023/04/18 05:46:34;;;;;;;11.98;7.72;;;7.60;99.90;;;;;;5092629;28;20035;-70
2023/04/18 05:49:00;;;;;;;11.77;7.80;;;7.60;99.90;;;;;;5093179;28;20089;-70
2023/04/18 05:51:27;;;;;;;11.85;7.43;;;7.60;99.90;;;;;;5108214;28;20068;-70
2023/04/18 05:53:53;;;;;;;14.02;7.88;;;7.70;99.90;;;;;;5090827;28;20120;-70
2023/04/18 05:56:18;;;;;;;14.90;8.45;;;7.70;99.90;;;;;;5110929;28;20096;-70
2023/04/18 05:58:46;;;;;;;12.52;8.00;;;7.70;99.90;;;;;;5088407;28;20122;-70
2023/04/18 06:01:13;;;;;;;12.85;8.20;;;7.70;99.90;;;;;;5091350;28;20036;-71
2023/04/18 06:03:40;;;;;;;11.88;7.18;;;7.70;99.90;;;;;;5096400;28;20040;-70
2023/04/18 06:06:06;;;;;;;13.88;8.48;;;7.80;99.90;;;;;;5107712;27;20032;-70
2023/04/18 06:08:32;;;;;;;13.55;8.63;;;7.80;99.90;;;;;;5089203;28;20048;-70
2023/04/18 06:10:57;;;;;;;14.25;9.35;;;7.80;99.90;;;;;;5131941;27;20027;-70
2023/04/18 06:13:23;;;;;;;10.48;6.15;;;7.80;99.90;;;;;;5082022;28;20574;-70
2023/04/18 06:15:48;;;;;;;13.18;8.48;;;7.80;99.90;;;;;;5114065;27;20043;-70
2023/04/18 06:18:14;;;;;;;14.27;8.25;;;7.80;99.90;;;;;;5090846;28;20315;-70
2023/04/18 06:20:40;;;;;;;13.80;8.90;;;7.90;99.90;;;;;;5088598;28;20048;-70
2023/04/18 06:23:07;;;;;;;13.77;8.48;;;7.90;99.90;;;;;;5093194;28;20044;-70
2023/04/18 06:25:32;;;;;;;13.82;9.50;;;8.00;99.90;;;;;;5089393;28;20028;-70
2023/04/18 06:27:58;;;;;;;13.13;8.23;;;7.90;99.90;;;;;;5107475;28;20092;-70
2023/04/18 06:30:23;;;;;;;13.32;9.30;;;8.00;99.90;;;;;;5112208;28;20047;-70
2023/04/18 06:32:49;;;;;;;14.90;9.90;;;7.90;99.90;;;;;;5113713;27;20034;-71
2023/04/18 06:35:15;;;;;;;15.20;9.05;;;7.90;99.90;;;;;;5089509;28;20518;-70
2023/04/18 06:37:43;;;;;;;13.85;9.07;;;7.90;99.90;;;;;;5108741;28;20084;-70
2023/04/18 06:40:10;;;;;;;14.02;8.65;;;7.90;99.90;;;;;;5101489;28;20042;-70
2023/04/18 06:42:36;;;;;;;14.68;8.35;;;8.00;99.90;;;;;;5101023;28;20040;-70
2023/04/18 06:45:02;;;;;;;16.50;10.27;;;8.10;99.90;;;;;;5083177;28;20043;-70
2023/04/18 06:47:29;;;;;;;14.75;8.57;;;8.20;99.90;;;;;;5110917;27;20032;-70
2023/04/18 06:49:54;;;;;;;14.93;8.93;;;8.20;99.90;;;;;;5083248;28;21442;-70
2023/04/18 06:52:20;;;;;;;16.58;9.30;;;8.20;99.90;;;;;;5097425;28;20036;-70
2023/04/18 06:54:45;;;;;;;14.20;8.73;;;8.20;99.90;;;;;;5112689;28;20188;-70
2023/04/18 06:57:12;;;;;;;14.70;9.48;;;8.20;99.90;;;;;;5113935;28;20051;-70
2023/04/18 06:59:40;;;;;;;12.65;8.02;;;8.20;99.90;;;;;;5103174;27;20130;-70
2023/04/18 07:02:06;;;;;;;14.75;8.82;;;8.20;99.90;;;;;;5113949;28;20460;-70
2023/04/18 07:04:32;;;;;;;14.63;9.40;;;8.20;99.90;;;;;;5089418;28;20126;-70
2023/04/18 07:06:57;;;;;;;12.90;8.07;;;8.20;99.90;;;;;;5093912;28;20123;-70
2023/04/18 07:09:23;;;;;;;13.55;8.80;;;8.10;99.90;;;;;;5087950;28;20076;-70
2023/04/18 07:11:50;;;;;;;15.20;7.95;;;8.20;99.90;;;;;;5092076;28;20039;-70
2023/04/18 07:14:16;;;;;;;12.35;8.40;;;8.30;99.90;;;;;;5110419;28;20054;-70
2023/04/18 07:16:41;;;;;;;13.57;8.27;;;8.20;99.90;;;;;;5077626;28;20126;-70
2023/04/18 07:19:07;;;;;;;12.90;7.65;;;8.30;99.90;;;;;;5080681;28;20048;-70
2023/04/18 07:21:32;;;;;;;13.73;8.45;;;8.30;99.90;;;;;;5101982;27;20031;-70
2023/04/18 07:23:58;;;;;;;12.88;7.47;;;8.50;99.90;;;;;;5111081;28;20036;-70
2023/04/18 07:26:26;;;;;;;14.88;8.85;;;8.50;99.90;;;;;;5102894;28;20508;-70
2023/04/18 07:28:51;;;;;;;14.15;9.20;;;8.60;99.90;;;;;;5111149;28;20036;-70
2023/04/18 07:31:18;;;;;;;13.38;9.18;;;8.60;99.90;;;;;;5084389;28;20088;-70
2023/04/18 07:33:43;;;;;;;13.57;8.15;;;8.70;99.90;;;;;;5105715;28;20096;-70
2023/04/18 07:36:09;;;;;;;14.23;9.38;;;8.70;99.90;;;;;;5088926;28;20432;-70
2023/04/18 07:38:35;;;;;;;13.90;8.63;;;8.80;99.90;;;;;;5092668;28;20058;-70
2023/04/18 07:41:01;;;;;;;15.00;8.68;;;8.90;99.90;;;;;;5107605;28;20035;-70
2023/04/18 07:43:27;;;;;;;12.63;7.72;;;8.90;99.90;;;;;;5095337;28;20122;-70
2023/04/18 07:45:53;;;;;;;12.25;7.75;;;8.90;99.90;;;;;;5112022;28;20472;-70
2023/04/18 07:48:24;;;;;;;12.38;8.52;;;9.00;99.90;;;;;;5112794;28;20151;-80
2023/04/18 07:50:50;;;;;;;13.20;8.02;;;9.00;99.90;;;;;;5095720;28;20031;-70
2023/04/18 07:53:16;;;;;;;12.27;7.90;;;9.10;99.90;;;;;;5091632;28;20039;-70
2023/04/18 07:55:42;;;;;;;11.98;7.40;;;9.30;99.90;;;;;;5095664;28;20054;-70
2023/04/18 07:58:08;;;;;;;11.65;7.55;;;9.50;99.90;;;;;;5085193;28;20071;-70
2023/04/18 08:00:36;;;;;;;12.15;8.25;;;9.60;99.90;;;;;;5089021;28;20040;-70
2023/04/18 08:03:02;;;;;;;11.45;7.15;;;9.70;99.90;;;;;;5108544;28;20048;-70
2023/04/18 08:05:27;;;;;;;12.77;7.47;;;9.80;99.90;;;;;;5092119;28;20500;-70
2023/04/18 08:07:53;;;;;;;12.63;6.53;;;9.90;99.90;;;;;;5095243;28;20028;-70
2023/04/18 08:10:18;;;;;;;11.23;7.13;;;10.10;99.90;;;;;;5076788;28;20039;-70
2023/04/18 08:12:44;;;;;;;13.68;7.32;;;10.20;99.90;;;;;;5095054;28;20051;-70
2023/04/18 08:15:10;;;;;;;10.98;6.85;;;10.20;99.90;;;;;;5110769;28;20082;-71
2023/04/18 08:17:37;;;;;;;10.20;6.72;;;10.20;99.90;;;;;;5111366;28;20040;-70
2023/04/18 08:20:05;;;;;;;10.10;6.78;;;10.30;99.90;;;;;;5112733;28;20556;-71
2023/04/18 08:22:32;;;;;;;10.93;6.07;;;10.30;99.90;;;;;;5075675;28;20044;-70
2023/04/18 08:24:59;;;;;;;10.10;6.00;;;10.50;99.90;;;;;;5098804;28;20548;-70
2023/04/18 08:27:25;;;;;;;10.00;5.72;;;10.50;99.90;;;;;;5102595;28;20086;-70
2023/04/18 08:29:50;;;;;;;11.02;6.82;;;10.40;99.90;;;;;;5108718;28;20075;-70
2023/04/18 08:32:16;;;;;;;12.15;6.20;;;10.50;99.90;;;;;;5075285;28;20039;-70
2023/04/18 08:34:42;;;;;;;10.73;6.57;;;10.50;99.90;;;;;;5074444;28;20504;-70
2023/04/18 08:37:09;;;;;;;10.07;6.70;;;10.60;99.90;;;;;;5105276;28;20039;-70
2023/04/18 08:39:34;;;;;;;10.18;6.07;;;10.70;99.90;;;;;;5091224;28;20067;-70
2023/04/18 08:42:00;;;;;;;10.02;5.85;;;10.80;99.90;;;;;;5082626;28;20067;-70
2023/04/18 08:44:29;;;;;;;9.82;6.05;;;10.90;99.90;;;;;;5100136;28;20067;-70
2023/04/18 08:46:56;;;;;;;9.70;5.65;;;10.90;99.90;;;;;;5100767;28;20043;-70
2023/04/18 08:49:23;;;;;;;9.98;6.07;;;11.10;99.90;;;;;;5108710;28;20122;-70
2023/04/18 08:51:50;;;;;;;9.52;5.63;;;11.20;99.90;;;;;;5108055;28;20050;-70
2023/04/18 08:54:18;;;;;;;10.13;6.22;;;11.20;99.90;;;;;;5106756;28;20047;-70
2023/04/18 08:56:44;;;;;;;10.55;6.38;;;11.20;99.90;;;;;;5094146;28;20091;-70
2023/04/18 08:59:10;;;;;;;10.05;6.80;;;11.30;99.90;;;;;;5101867;28;20051;-70
2023/04/18 09:01:55;;;;;;;10.65;6.85;;;11.40;99.90;;;;;;5110466;28;20476;-71
2023/04/18 09:04:44;;;;;;;11.40;6.97;;;11.40;99.90;;;;;;5100470;28;20044;-70
2023/04/18 09:07:12;;;;;;;13.52;6.30;;;11.40;99.90;;;;;;5115361;27;20070;-70
2023/04/18 09:09:52;;;;;;;8.57;6.03;;;11.50;99.90;;;;;;5095235;28;20031;-70
2023/04/18 09:12:22;;;;;;;11.60;6.55;;;11.60;99.90;;;;;;5087318;28;20135;-70
2023/04/18 09:14:50;;;;;;;11.32;6.25;;;11.70;99.90;;;;;;5091138;28;20047;-70
2023/04/18 09:17:44;;;;;;;9.40;5.85;;;11.70;99.90;;;;;;5107782;28;20126;-70
2023/04/18 09:20:11;;;;;;;10.73;6.85;;;11.70;99.90;;;;;;5091549;28;20036;-71
2023/04/18 09:22:50;;;;;;;14.10;6.93;;;11.80;99.90;;;;;;5096178;28;20039;-70
2023/04/18 09:25:46;;;;;;;8.80;5.82;;;11.80;99.90;;;;;;5111620;28;20093;-70
2023/04/18 09:28:32;;;;;;;9.80;5.50;;;12.00;99.90;;;;;;5098627;27;20055;-70
2023/04/18 09:31:11;;;;;;;10.32;6.45;;;12.20;99.90;;;;;;5090145;28;20039;-70
2023/04/18 09:33:39;;;;;;;11.75;6.30;;;12.30;99.90;;;;;;5108037;28;20043;-70
2023/04/18 09:36:23;;;;;;;11.05;7.07;;;12.30;99.90;;;;;;5094425;28;20460;-70
2023/04/18 09:38:51;;;;;;;12.20;6.18;;;12.20;99.90;;;;;;5094885;28;20074;-70
2023/04/18 09:41:17;;;;;;;11.07;6.07;;;12.20;99.90;;;;;;5097134;27;20455;-70
2023/04/18 09:43:44;;;;;;;10.65;6.40;;;12.40;99.90;;;;;;5113040;28;20491;-70
2023/04/18 09:46:11;;;;;;;10.43;6.63;;;12.30;99.90;;;;;;5097774;28;20035;-70
2023/04/18 09:48:37;;;;;;;10.48;6.53;;;12.50;99.90;;;;;;5115495;28;20043;-70
2023/04/18 09:51:08;;;;;;;11.52;7.40;;;12.60;99.90;;;;;;5095098;28;20188;-71
2023/04/18 09:53:38;;;;;;;10.52;6.50;;;12.60;99.90;;;;;;5114625;28;20040;-70
2023/04/18 09:56:08;;;;;;;10.10;6.45;;;12.70;99.90;;;;;;5094828;28;20063;-71
2023/04/18 09:58:40;;;;;;;12.07;7.30;;;12.70;99.90;;;;;;5095820;28;20035;-71
2023/04/18 10:01:06;;;;;;;11.30;6.75;;;12.70;99.90;;;;;;5106063;28;20047;-71
2023/04/18 10:03:47;;;;;;;10.50;6.70;;;12.80;99.90;;;;;;5098940;28;20036;-71
2023/04/18 10:06:15;;;;;;;10.13;5.68;;;12.90;99.90;;;;;;5099621;27;20043;-71
2023/04/18 10:08:43;;;;;;;9.70;6.78;;;13.10;99.90;;;;;;5077392;28;20039;-71
2023/04/18 10:11:09;;;;;;;10.18;6.93;;;13.10;99.90;;;;;;5111623;28;20059;-71
2023/04/18 10:13:38;;;;;;;10.73;6.90;;;13.10;99.90;;;;;;5125680;27;20495;-71
2023/04/18 10:16:05;;;;;;;12.52;6.88;;;13.00;99.90;;;;;;5106554;28;20495;-70
2023/04/18 10:18:31;;;;;;;11.43;7.28;;;13.10;99.90;;;;;;5087023;28;20040;-68
2023/04/18 10:21:02;;;;;;;11.05;7.05;;;13.00;99.90;;;;;;5114585;28;20039;-70
2023/04/18 10:23:33;;;;;;;10.15;6.93;;;13.00;99.90;;;;;;5095658;28;20520;-70
2023/04/18 10:26:00;;;;;;;12.38;7.63;;;13.30;99.90;;;;;;5107161;28;20066;-70
2023/04/18 10:28:27;;;;;;;11.63;6.93;;;13.40;99.90;;;;;;5097827;28;20036;-70
2023/04/18 10:30:52;;;;;;;11.93;7.35;;;13.60;99.90;;;;;;5093230;28;20060;-70
2023/04/18 10:33:34;;;;;;;10.30;7.22;;;13.50;99.90;;;;;;5078251;28;20082;-70
2023/04/18 10:36:05;;;;;;;13.63;8.30;;;13.60;99.90;;;;;;5097063;28;20066;-69
2023/04/18 10:38:32;;;;;;;12.20;7.80;;;13.50;99.90;;;;;;5114025;28;20040;-70
2023/04/18 10:41:18;;;;;;;12.00;8.23;;;13.50;99.90;;;;;;5086745;28;20036;-72
2023/04/18 10:44:05;;;;;;;12.82;8.45;;;13.60;99.90;;;;;;5076810;28;20040;-70
2023/04/18 10:46:32;;;;;;;12.90;8.25;;;13.60;99.90;;;;;;5075999;28;20490;-69
2023/04/18 10:49:16;;;;;;;10.65;7.60;;;13.70;99.90;;;;;;5104195;28;20046;-69
2023/04/18 10:51:57;;;;;;;13.00;8.35;;;13.60;99.90;;;;;;5112147;28;20088;-69
2023/04/18 10:54:50;;;;;;;12.45;7.88;;;13.40;99.90;;;;;;5094578;28;20433;-69
2023/04/18 10:57:15;;;;;;;12.23;6.97;;;13.70;99.90;;;;;;5109661;28;20054;-69
2023/04/18 10:59:43;;;;;;;13.25;8.45;;;13.80;99.90;;;;;;5093641;28;20412;-69
2023/04/18 11:02:20;;;;;;;13.13;8.38;;;13.70;99.90;;;;;;5093242;28;20460;-70
2023/04/18 11:04:53;;;;;;;13.50;7.90;;;13.80;99.90;;;;;;5091057;28;20044;-69
2023/04/18 11:07:30;;;;;;;11.77;7.35;;;13.90;99.90;;;;;;5113545;28;20118;-69
2023/04/18 11:09:56;;;;;;;10.27;6.97;;;13.80;99.90;;;;;;5112041;28;20570;-70
2023/04/18 11:12:22;;;;;;;10.45;7.63;;;13.80;99.90;;;;;;5094814;28;20031;-69
2023/04/18 11:14:50;;;;;;;11.93;7.30;;;13.80;99.90;;;;;;5104335;28;20040;-69
2023/04/18 11:17:23;;;;;;;12.88;8.23;;;13.90;99.90;;;;;;5092663;28;20068;-69
2023/04/18 11:19:50;;;;;;;12.70;7.93;;;13.90;99.90;;;;;;5092630;28;20078;-69
2023/04/18 11:22:17;;;;;;;11.77;7.32;;;13.90;99.90;;;;;;5085152;28;20084;-69
2023/04/18 11:24:43;;;;;;;11.88;7.40;;;13.80;99.90;;;;;;5088071;28;20515;-70
2023/04/18 11:27:10;;;;;;;11.30;7.00;;;13.70;99.90;;;;;;5092949;28;20226;-70
2023/04/18 11:29:37;;;;;;;12.98;8.85;;;14.00;99.90;;;;;;5092642;28;20492;-69
2023/04/18 11:32:05;;;;;;;12.73;8.10;;;14.00;99.90;;;;;;5087114;28;20082;-69
2023/04/18 11:34:31;;;;;;;12.15;7.45;;;14.00;99.90;;;;;;5105657;28;20055;-69
2023/04/18 11:36:57;;;;;;;11.57;7.40;;;13.80;99.90;;;;;;5106250;27;20035;-69
2023/04/18 11:39:23;;;;;;;10.95;7.55;;;14.00;99.90;;;;;;5081665;28;20081;-69
2023/04/18 11:41:49;;;;;;;12.85;8.02;;;14.00;99.90;;;;;;5096778;28;20047;-69
2023/04/18 11:44:25;;;;;;;11.15;7.85;;;14.00;99.90;;;;;;5109752;28;20040;-69
2023/04/18 11:46:51;;;;;;;12.77;7.65;;;14.10;99.90;;;;;;5092116;28;20047;-69
2023/04/18 11:49:43;;;;;;;14.80;8.05;;;14.10;99.00;;;;;;5093146;28;20118;-69
2023/04/18 11:52:12;;;;;;;12.63;8.00;;;14.20;99.90;;;;;;5073087;28;20044;-69
2023/04/18 11:54:43;;;;;;;11.23;7.55;;;14.30;99.90;;;;;;5077016;28;20110;-69
2023/04/18 11:57:23;;;;;;;13.93;8.05;;;14.20;98.90;;;;;;5091898;28;20106;-69
2023/04/18 11:59:55;;;;;;;15.38;8.10;;;14.20;99.90;;;;;;5101164;28;20043;-69
2023/04/18 12:02:22;;;;;;;13.07;8.43;;;14.40;99.90;;;;;;5091834;28;20027;-69
2023/04/18 12:04:53;;;;;;;10.95;8.07;;;14.30;99.90;;;;;;5094223;28;20495;-69
2023/04/18 12:07:38;;;;;;;10.77;6.83;;;14.30;99.90;;;;;;5081523;28;20046;-69
2023/04/18 12:10:06;;;;;;;11.35;7.90;;;14.30;99.90;;;;;;5112274;28;20396;-69
2023/04/18 12:12:33;;;;;;;12.57;8.13;;;14.30;99.90;;;;;;5126076;27;20129;-69
2023/04/18 12:15:07;;;;;;;14.57;9.85;;;14.40;99.90;;;;;;5128020;27;20035;-69
2023/04/18 12:17:34;;;;;;;14.57;8.73;;;14.30;99.90;;;;;;5093168;28;20082;-69
2023/04/18 12:20:01;;;;;;;12.15;7.82;;;14.50;99.90;;;;;;5108477;28;20032;-69
2023/04/18 12:22:57;;;;;;;9.65;6.30;;;14.50;99.90;;;;;;5091453;28;20070;-69
2023/04/18 12:25:26;;;;;;;10.85;7.53;;;14.70;99.90;;;;;;5066563;28;20055;-69
2023/04/18 12:27:58;;;;;;;10.43;7.45;;;14.60;99.90;;;;;;5114888;27;20027;-69
2023/04/18 12:30:26;;;;;;;10.30;6.95;;;14.30;99.90;;;;;;5099053;28;20036;-69
2023/04/18 12:32:54;;;;;;;11.98;6.55;;;14.50;99.90;;;;;;5114533;27;20047;-69
2023/04/18 12:35:21;;;;;;;10.88;6.78;;;14.50;99.90;;;;;;5099715;28;20438;-69
2023/04/18 12:37:47;;;;;;;9.63;5.85;;;14.60;99.90;;;;;;5087585;28;20084;-69
2023/04/18 12:40:13;;;;;;;9.90;6.32;;;14.70;99.90;;;;;;5094857;28;20047;-69
2023/04/18 12:42:42;;;;;;;11.70;6.78;;;14.60;99.90;;;;;;5103173;27;20055;-77
2023/04/18 12:45:09;;;;;;;11.18;6.65;;;14.40;99.90;;;;;;5109242;28;20084;-69